Time;durP1;ratioP1;P1;durP2;ratioP2;P2;SDS_P1;SDS_P2;PMS_P1;PMS_P2;Temp;Humidity;BMP_temperature;BMP_pressure;BME280_temperature;BME280_humidity;BME280_pressure;Samples;Min_cycle;Max_cycle;Signal;HPM_P1;HPM_P2
2021/10/02 00:41:11;;;;;;;0.55;0.43;;;22.10;48.30;26.30;94012.00;;;;10308936;28;45631;-62
2021/10/02 00:46:13;;;;;;;0.40;0.40;;;22.00;48.30;26.30;93991.00;;;;10309154;28;45574;-60
2021/10/02 00:51:14;;;;;;;0.63;0.40;;;22.00;48.30;26.30;94000.00;;;;10308036;28;45274;-60
2021/10/02 00:56:15;;;;;;;0.65;0.47;;;22.00;48.30;26.30;94002.00;;;;10307443;28;45331;-62
2021/10/02 01:01:25;;;;;;;0.43;0.40;;;22.00;48.30;26.30;93992.00;;;;10304464;28;46422;-61
2021/10/02 01:06:59;;;;;;;0.20;0.20;;;22.00;48.30;26.40;94000.00;;;;10305978;28;45655;-61
2021/10/02 01:12:09;;;;;;;0.60;0.50;;;22.00;48.30;26.30;94001.00;;;;10308643;28;45535;-60
2021/10/02 01:17:41;;;;;;;0.50;0.40;;;22.00;48.30;26.40;93997.00;;;;10313642;28;45342;-60
2021/10/02 01:23:18;;;;;;;0.73;0.43;;;22.00;48.30;26.40;93997.00;;;;10314257;28;45543;-61
2021/10/02 01:28:20;;;;;;;0.35;0.35;;;22.00;48.30;26.30;93987.00;;;;10313461;28;45428;-62
2021/10/02 01:49:57;;;;;;;0.40;0.40;;;22.00;48.30;26.30;93992.00;;;;10312054;28;45318;-60
2021/10/02 01:55:00;;;;;;;0.40;0.30;;;22.00;48.30;26.30;94004.00;;;;10313449;28;45329;-61
2021/10/02 02:00:04;;;;;;;0.60;0.57;;;22.00;48.40;26.20;93997.00;;;;10312944;28;51586;-61
2021/10/02 02:05:07;;;;;;;0.50;0.40;;;22.00;48.30;26.20;93984.00;;;;10312467;28;45464;-60
2021/10/02 02:10:09;;;;;;;0.47;0.40;;;22.00;48.30;26.20;93968.00;;;;10311799;28;47412;-60
2021/10/02 02:15:12;;;;;;;0.45;0.40;;;22.00;48.40;26.20;93970.00;;;;10311930;28;45367;-60
2021/10/02 02:20:23;;;;;;;0.93;0.50;;;22.00;48.30;26.30;93967.00;;;;10311744;28;45466;-61
2021/10/02 02:25:24;;;;;;;0.50;0.35;;;21.90;48.30;26.20;93948.00;;;;10311299;28;54209;-60
2021/10/02 02:30:25;;;;;;;0.60;0.50;;;21.90;48.30;26.20;93957.00;;;;10310934;28;62742;-61
2021/10/02 02:35:27;;;;;;;0.40;0.32;;;21.90;48.30;26.20;93957.00;;;;10313058;28;47579;-62
2021/10/02 02:40:28;;;;;;;0.52;0.30;;;21.90;48.30;26.20;93954.00;;;;10311512;28;50836;-60
2021/10/02 02:45:29;;;;;;;0.30;0.30;;;21.90;48.30;26.20;93947.00;;;;10311141;28;55388;-60
2021/10/02 02:50:41;;;;;;;0.50;0.40;;;22.00;48.30;26.20;93949.00;;;;10309978;28;75512;-60
2021/10/02 02:55:54;;;;;;;0.40;0.22;;;21.90;48.30;26.20;93932.00;;;;10310709;28;45278;-60
2021/10/02 03:01:00;;;;;;;0.30;0.30;;;21.90;48.30;26.20;93936.00;;;;10312238;28;46321;-62
2021/10/02 03:06:08;;;;;;;0.40;0.40;;;21.90;48.30;26.20;93939.00;;;;10310565;28;45345;-60
2021/10/02 03:11:11;;;;;;;0.45;0.40;;;21.90;48.30;26.20;93940.00;;;;10310601;28;46285;-60
2021/10/02 03:16:14;;;;;;;0.68;0.40;;;21.90;48.30;26.20;93927.00;;;;10309336;28;47762;-61
2021/10/02 03:21:15;;;;;;;0.55;0.40;;;21.90;48.30;26.20;93933.00;;;;10309543;28;73036;-61
2021/10/02 03:26:17;;;;;;;0.40;0.40;;;21.90;48.30;26.20;93913.00;;;;10309858;28;46481;-62
2021/10/02 03:31:18;;;;;;;0.50;0.50;;;21.90;48.30;26.20;93907.00;;;;10309840;28;45371;-60
2021/10/02 03:36:19;;;;;;;0.68;0.47;;;21.90;48.30;26.20;93883.00;;;;10309464;28;63360;-61
2021/10/02 03:41:21;;;;;;;0.50;0.40;;;21.90;48.30;26.20;93901.00;;;;10309610;28;54701;-60
2021/10/02 03:46:21;;;;;;;0.30;0.22;;;21.90;48.30;26.20;93903.00;;;;10308483;28;47616;-61
2021/10/02 03:51:22;;;;;;;0.20;0.20;;;21.90;48.30;26.20;93912.00;;;;10309709;28;75381;-60
2021/10/02 03:56:25;;;;;;;0.30;0.30;;;21.90;48.30;26.20;93903.00;;;;10323705;28;74092;-61
2021/10/02 04:01:25;;;;;;;0.50;0.40;;;21.90;48.30;26.10;93898.00;;;;10310037;28;45469;-60
2021/10/02 04:06:26;;;;;;;0.22;0.22;;;21.90;48.30;26.20;93891.00;;;;10308597;28;73411;-61
2021/10/02 04:11:27;;;;;;;0.30;0.30;;;21.90;48.30;26.20;93898.00;;;;10308198;28;73666;-62
2021/10/02 04:16:29;;;;;;;0.60;0.40;;;22.00;48.40;26.20;93910.00;;;;10324928;28;47098;-60
2021/10/02 04:21:30;;;;;;;0.25;0.25;;;22.00;48.30;26.30;93932.00;;;;10308609;28;45402;-61
2021/10/02 04:26:31;;;;;;;0.30;0.28;;;22.10;48.20;26.40;93936.00;;;;10307697;28;75470;-60
2021/10/02 04:31:31;;;;;;;0.40;0.30;;;22.10;48.10;26.40;93931.00;;;;10307151;28;75172;-61
2021/10/02 04:36:35;;;;;;;0.35;0.30;;;22.20;48.10;26.50;93936.00;;;;10306907;28;74521;-60
2021/10/02 04:41:36;;;;;;;0.30;0.28;;;22.20;48.10;26.50;93934.00;;;;10307794;28;45283;-61
2021/10/02 04:46:36;;;;;;;0.43;0.30;;;22.30;48.10;26.50;93937.00;;;;10307102;28;55366;-61
2021/10/02 04:51:38;;;;;;;0.77;0.40;;;22.30;48.00;26.60;93935.00;;;;10313304;28;74289;-61
2021/10/02 04:56:38;;;;;;;0.40;0.32;;;22.30;47.90;26.60;93923.00;;;;10315483;28;45988;-60
2021/10/02 05:01:39;;;;;;;0.20;0.20;;;22.30;47.90;26.60;93914.00;;;;10313589;28;75293;-60
2021/10/02 05:06:40;;;;;;;0.30;0.30;;;22.40;48.00;26.60;93921.00;;;;10312992;28;75688;-61
2021/10/02 05:11:41;;;;;;;0.30;0.30;;;22.40;48.00;26.70;93911.00;;;;10314123;28;45860;-61
2021/10/02 05:16:42;;;;;;;0.30;0.30;;;22.40;47.90;26.70;93931.00;;;;10315002;28;45372;-60
2021/10/02 05:21:43;;;;;;;0.47;0.30;;;22.40;47.90;26.80;93909.00;;;;10315260;28;45277;-60
2021/10/02 05:26:43;;;;;;;0.30;0.28;;;22.50;47.90;26.80;93912.00;;;;10312334;28;75360;-60
2021/10/02 05:31:44;;;;;;;0.80;0.40;;;22.50;47.90;26.80;93921.00;;;;10313930;28;75409;-60
2021/10/02 05:36:45;;;;;;;0.30;0.15;;;22.50;47.90;26.80;93912.00;;;;10313826;28;63875;-61
2021/10/02 05:41:46;;;;;;;0.15;0.15;;;22.50;47.90;26.80;93904.00;;;;10314374;28;58166;-60
2021/10/02 05:46:47;;;;;;;0.50;0.30;;;22.50;47.80;26.90;93898.00;;;;10312927;28;75603;-60
2021/10/02 05:51:48;;;;;;;0.32;0.32;;;22.50;47.80;26.90;93895.00;;;;10313365;28;45401;-60
2021/10/02 05:56:49;;;;;;;0.20;0.20;;;22.60;47.80;26.90;93911.00;;;;10312470;28;75509;-62
2021/10/02 06:01:49;;;;;;;0.17;0.17;;;22.60;47.80;26.90;93916.00;;;;10311671;28;75918;-62
2021/10/02 06:06:50;;;;;;;0.25;0.25;;;22.60;47.80;26.90;93924.00;;;;10311551;28;73270;-62
2021/10/02 06:11:51;;;;;;;0.10;0.10;;;22.60;47.70;27.00;93933.00;;;;10311632;28;68287;-60
2021/10/02 06:16:52;;;;;;;0.40;0.20;;;22.60;47.70;27.00;93926.00;;;;10313322;28;48358;-61
2021/10/02 06:21:53;;;;;;;0.20;0.20;;;22.70;47.80;27.00;93933.00;;;;10313454;28;45499;-60
2021/10/02 06:26:54;;;;;;;0.38;0.20;;;22.60;47.70;27.00;93927.00;;;;10311453;28;45340;-60
2021/10/02 06:31:55;;;;;;;0.20;0.20;;;22.70;47.70;27.00;93932.00;;;;10311466;28;65242;-61
2021/10/02 06:36:55;;;;;;;0.15;0.15;;;22.70;47.70;27.00;93921.00;;;;10311441;28;75340;-61
2021/10/02 06:41:56;;;;;;;0.20;0.20;;;22.70;47.70;27.10;93916.00;;;;10312122;28;74375;-61
2021/10/02 06:46:57;;;;;;;0.20;0.20;;;22.70;47.70;27.10;93897.00;;;;10309657;28;74511;-61
2021/10/02 06:51:57;;;;;;;0.20;0.20;;;22.70;47.70;27.10;93925.00;;;;10310984;28;56638;-61
2021/10/02 06:56:59;;;;;;;0.30;0.30;;;22.70;47.70;27.10;93913.00;;;;10309806;28;75420;-60
2021/10/02 07:02:01;;;;;;;0.28;0.20;;;22.70;47.70;27.10;93912.00;;;;10309673;28;75457;-60
2021/10/02 07:07:02;;;;;;;0.20;0.17;;;22.70;47.60;27.10;93928.00;;;;10311295;28;45489;-61
2021/10/02 07:12:04;;;;;;;0.20;0.20;;;22.70;47.60;27.10;93921.00;;;;10311339;28;45883;-60
2021/10/02 07:17:04;;;;;;;0.32;0.20;;;22.70;47.60;27.10;93920.00;;;;10311385;28;45514;-61
2021/10/02 07:22:06;;;;;;;0.43;0.30;;;22.80;47.70;27.10;93922.00;;;;10310370;28;45428;-60
2021/10/02 07:27:07;;;;;;;0.20;0.20;;;22.80;47.70;27.10;93908.00;;;;10309594;28;46748;-60
2021/10/02 07:32:07;;;;;;;0.30;0.25;;;22.80;47.70;27.10;93910.00;;;;10325529;28;75352;-60
2021/10/02 07:37:08;;;;;;;0.20;0.20;;;22.80;47.60;27.10;93907.00;;;;10309438;28;75632;-61
2021/10/02 07:42:12;;;;;;;0.25;0.25;;;22.80;47.60;27.10;93900.00;;;;10324947;28;74080;-61
2021/10/02 07:47:13;;;;;;;0.30;0.30;;;22.80;47.60;27.10;93916.00;;;;10325172;28;46525;-60
2021/10/02 07:52:14;;;;;;;0.17;0.17;;;22.80;47.60;27.10;93905.00;;;;10309399;28;48950;-61
2021/10/02 07:57:18;;;;;;;0.15;0.15;;;22.80;47.60;27.20;93910.00;;;;10308354;28;49648;-62
2021/10/02 08:02:20;;;;;;;0.40;0.30;;;22.80;47.60;27.20;93920.00;;;;10308797;28;58126;-60
2021/10/02 08:07:21;;;;;;;0.38;0.25;;;22.80;47.60;27.20;93897.00;;;;10308000;28;45338;-61
2021/10/02 08:12:23;;;;;;;0.93;0.20;;;22.80;47.60;27.20;93896.00;;;;10309996;28;45321;-61
2021/10/02 08:17:26;;;;;;;0.30;0.30;;;22.80;47.60;27.20;93892.00;;;;10307576;28;56926;-60
2021/10/02 08:22:27;;;;;;;0.75;0.32;;;22.80;47.60;27.20;93896.00;;;;10310619;28;45326;-60
2021/10/02 08:27:30;;;;;;;0.40;0.28;;;22.80;47.60;27.20;93892.00;;;;10314687;28;45367;-60
2021/10/02 08:32:31;;;;;;;0.30;0.20;;;22.80;47.50;27.20;93893.00;;;;10314617;28;74274;-60
2021/10/02 08:37:31;;;;;;;0.63;0.40;;;22.80;47.50;27.20;93889.00;;;;10331170;28;48035;-60
2021/10/02 08:42:37;;;;;;;0.40;0.35;;;22.80;47.50;27.20;93892.00;;;;10298260;28;61678;-59
2021/10/02 08:47:43;;;;;;;0.40;0.30;;;22.80;47.50;27.20;93887.00;;;;10314611;28;45361;-62
2021/10/02 08:52:46;;;;;;;1.65;0.40;;;22.80;47.50;27.20;93873.00;;;;10315072;28;46234;-61
2021/10/02 08:57:49;;;;;;;0.43;0.30;;;22.80;47.40;27.20;93875.00;;;;10313644;28;45294;-60
2021/10/02 09:02:52;;;;;;;0.40;0.30;;;22.90;47.50;27.20;93865.00;;;;10314463;28;45364;-61
2021/10/02 09:07:59;;;;;;;1.00;0.50;;;22.80;47.40;27.20;93855.00;;;;10313803;28;75322;-60
2021/10/02 09:13:01;;;;;;;3.70;1.50;;;22.80;47.40;27.10;93873.00;;;;10336407;28;46183;-60
2021/10/02 09:18:02;;;;;;;1.70;1.20;;;22.70;47.20;27.00;93848.00;;;;10372812;28;45325;-60
2021/10/02 09:23:08;;;;;;;3.28;1.20;;;22.70;47.20;27.00;93836.00;;;;10374537;28;45273;-61
2021/10/02 09:28:13;;;;;;;3.22;1.40;;;22.70;47.60;27.10;93850.00;;;;10383155;28;47277;-61
2021/10/02 09:33:20;;;;;;;2.85;1.15;;;22.70;47.80;27.10;93828.00;;;;10356304;28;55462;-62
2021/10/02 09:38:21;;;;;;;1.92;1.00;;;22.70;47.70;27.10;93837.00;;;;10383173;28;46875;-61
2021/10/02 09:43:22;;;;;;;3.53;1.27;;;22.70;47.80;27.10;93831.00;;;;10393488;28;45361;-61
2021/10/02 09:48:32;;;;;;;3.42;0.98;;;22.70;47.90;27.10;93821.00;;;;10335631;28;47667;-61
2021/10/02 09:53:43;;;;;;;2.78;1.10;;;22.70;47.90;27.10;93827.00;;;;10353204;28;46666;-60
2021/10/02 09:58:44;;;;;;;2.00;1.02;;;22.70;48.10;27.10;93825.00;;;;10353637;28;45962;-60
2021/10/02 10:03:48;;;;;;;1.95;1.08;;;22.80;48.00;27.10;93824.00;;;;10352066;28;46058;-61
2021/10/02 10:09:06;;;;;;;2.88;0.98;;;22.80;47.90;27.20;93820.00;;;;10350289;28;55652;-63
2021/10/02 10:14:07;;;;;;;1.80;1.10;;;22.80;47.90;27.20;93823.00;;;;10352093;28;45387;-62
2021/10/02 10:19:24;;;;;;;2.72;1.20;;;22.80;48.10;27.30;93827.00;;;;10351292;28;70879;-62
2021/10/02 10:24:24;;;;;;;;;;;22.90;48.20;27.80;93802.00;;;;10352653;28;53173;-62
2021/10/02 10:29:43;;;;;;;1.63;1.13;;;22.90;48.20;27.40;93799.00;;;;10350888;28;75759;-61
2021/10/02 10:34:44;;;;;;;2.30;1.10;;;22.90;48.20;27.30;93793.00;;;;10351713;28;46576;-61
2021/10/02 10:39:45;;;;;;;1.20;1.08;;;22.90;48.10;27.30;93774.00;;;;10350841;28;74253;-60
2021/10/02 10:44:46;;;;;;;3.08;1.17;;;22.90;48.00;27.30;93771.00;;;;10349603;28;75541;-60
2021/10/02 10:49:47;;;;;;;1.92;1.27;;;22.90;48.00;27.30;93766.00;;;;10349695;28;74491;-61
2021/10/02 10:54:51;;;;;;;2.13;1.30;;;22.90;47.90;27.30;93760.00;;;;10352291;28;45334;-60
2021/10/02 10:59:52;;;;;;;2.90;1.20;;;22.90;47.90;27.30;93760.00;;;;10352528;28;45647;-61
2021/10/02 11:04:53;;;;;;;2.92;1.25;;;22.90;47.90;27.30;93749.00;;;;10345539;28;74479;-64
2021/10/02 11:09:53;;;;;;;3.33;1.50;;;22.90;48.20;27.30;93750.00;;;;10343234;28;45640;-64
2021/10/02 11:14:59;;;;;;;2.47;1.35;;;23.00;48.60;27.30;93753.00;;;;10350202;28;75268;-60
2021/10/02 11:20:37;;;;;;;4.22;1.75;;;23.00;48.70;27.50;93750.00;;;;10350484;28;45439;-61
2021/10/02 11:25:37;;;;;;;3.00;1.33;;;23.00;48.60;27.30;93740.00;;;;10299691;28;45364;-60
2021/10/02 11:30:46;;;;;;;3.80;1.65;;;23.00;48.50;27.40;93737.00;;;;10349507;28;75621;-60
2021/10/02 11:35:47;;;;;;;4.78;2.00;;;23.00;48.50;27.30;93725.00;;;;10351131;28;54002;-61
2021/10/02 11:40:49;;;;;;;3.45;1.50;;;22.90;48.40;27.30;93718.00;;;;10349879;28;52281;-60
2021/10/02 11:45:50;;;;;;;3.55;1.48;;;22.90;48.40;27.30;93693.00;;;;10350150;28;46191;-60
2021/10/02 11:51:29;;;;;;;2.58;1.45;;;22.90;48.40;27.50;93673.00;;;;10351417;28;48269;-61
2021/10/02 11:56:30;;;;;;;3.10;1.77;;;22.90;48.40;27.30;93691.00;;;;10349395;28;45547;-60
2021/10/02 12:01:38;;;;;;;2.10;1.50;;;22.90;48.30;27.30;93677.00;;;;10350895;28;45442;-60
2021/10/02 12:06:45;;;;;;;2.50;1.33;;;22.90;48.30;27.30;93673.00;;;;10350239;28;46031;-61
2021/10/02 12:11:50;;;;;;;2.20;1.40;;;22.90;48.30;27.30;93664.00;;;;10350957;28;46394;-62
2021/10/02 12:17:02;;;;;;;2.28;1.38;;;22.90;48.30;27.30;93657.00;;;;10348879;28;45982;-61
2021/10/02 12:22:05;;;;;;;2.72;1.50;;;22.90;48.20;27.40;93652.00;;;;10349524;28;46286;-60
2021/10/02 12:27:10;;;;;;;2.72;1.42;;;22.90;48.20;27.40;93639.00;;;;10348395;28;47528;-60
2021/10/02 12:32:15;;;;;;;3.53;1.60;;;23.00;48.40;27.40;93634.00;;;;10348794;28;46075;-60
2021/10/02 12:37:31;;;;;;;2.33;1.65;;;23.00;48.30;27.40;93640.00;;;;10349553;28;47176;-62
2021/10/02 12:42:35;;;;;;;2.97;1.50;;;23.00;48.30;27.40;93631.00;;;;10349751;28;47884;-63
2021/10/02 12:47:36;;;;;;;3.42;1.52;;;23.00;48.30;27.40;93613.00;;;;10349194;28;45614;-62
2021/10/02 12:52:38;;;;;;;2.58;1.52;;;23.00;48.20;27.40;93621.00;;;;10348753;28;46094;-61
2021/10/02 12:57:41;;;;;;;2.83;1.70;;;23.00;48.50;27.40;93613.00;;;;10435021;22;46112;-66
2021/10/02 13:02:52;;;;;;;4.10;1.85;;;23.00;48.50;27.40;93613.00;;;;10430635;28;45467;-66
2021/10/02 13:07:54;;;;;;;3.40;1.63;;;23.00;48.40;27.40;93614.00;;;;10431032;28;46169;-66
2021/10/02 13:13:05;;;;;;;3.85;1.70;;;23.00;48.30;27.40;93593.00;;;;10440287;28;45325;-66
2021/10/02 13:18:09;;;;;;;3.70;1.60;;;23.00;48.30;27.40;93592.00;;;;10450104;28;45386;-67
2021/10/02 13:23:11;;;;;;;3.08;1.70;;;23.00;48.30;27.40;93592.00;;;;10438012;28;45410;-67
2021/10/02 13:28:34;;;;;;;2.72;1.60;;;23.00;48.30;27.50;93580.00;;;;10438001;28;47244;-67
2021/10/02 13:33:40;;;;;;;3.10;1.85;;;23.00;48.20;27.40;93577.00;;;;10437086;28;45518;-66
2021/10/02 13:38:41;;;;;;;2.20;1.67;;;23.00;48.30;27.40;93582.00;;;;10436099;28;45548;-65
2021/10/02 13:44:02;;;;;;;3.90;1.60;;;23.00;48.30;27.40;93577.00;;;;10435964;28;62601;-66
2021/10/02 13:49:11;;;;;;;3.10;1.50;;;23.00;48.30;27.40;93574.00;;;;10436169;28;46310;-64
2021/10/02 13:54:12;;;;;;;2.85;1.60;;;23.00;48.30;27.40;93550.00;;;;10419311;28;47342;-64
2021/10/02 13:59:13;;;;;;;3.33;1.73;;;23.00;48.30;27.30;93561.00;;;;10434986;28;71339;-64
2021/10/02 14:04:14;;;;;;;2.80;1.70;;;23.00;49.00;27.30;93556.00;;;;10419822;28;48047;-64
2021/10/02 14:09:15;;;;;;;2.90;1.80;;;23.00;48.40;27.30;93564.00;;;;10434897;28;75210;-64
2021/10/02 14:14:17;;;;;;;2.63;1.77;;;22.90;48.40;27.30;93551.00;;;;10437683;28;55499;-64
2021/10/02 14:19:18;;;;;;;3.88;1.77;;;22.90;49.00;27.30;93556.00;;;;10435595;28;75585;-65
2021/10/02 14:24:18;;;;;;;3.00;1.42;;;22.90;48.40;27.30;93549.00;;;;10434369;28;75461;-64
2021/10/02 14:29:19;;;;;;;1.88;1.40;;;22.90;48.40;27.30;93534.00;;;;10434821;28;74644;-65
2021/10/02 14:34:20;;;;;;;2.65;1.58;;;22.90;48.40;27.30;93528.00;;;;10435032;28;45537;-63
2021/10/02 14:39:21;;;;;;;2.50;1.70;;;22.90;48.40;27.20;93529.00;;;;10432450;28;75622;-64
2021/10/02 14:44:23;;;;;;;2.40;1.50;;;22.90;48.40;27.20;93518.00;;;;10434418;28;46439;-63
2021/10/02 14:49:24;;;;;;;2.22;1.50;;;22.90;48.40;27.20;93518.00;;;;10434221;28;45257;-65
2021/10/02 14:54:29;;;;;;;3.03;1.80;;;22.90;48.50;27.20;93508.00;;;;10433501;28;73175;-65
2021/10/02 14:59:31;;;;;;;2.58;1.70;;;22.90;48.40;27.20;93495.00;;;;10434443;28;45376;-64
2021/10/02 15:04:35;;;;;;;2.42;1.70;;;22.80;48.50;27.20;93499.00;;;;10417874;28;47236;-65
2021/10/02 15:09:36;;;;;;;2.38;1.60;;;22.80;48.50;27.20;93496.00;;;;10433704;28;47887;-65
2021/10/02 15:14:37;;;;;;;2.47;1.40;;;22.80;48.50;27.20;93478.00;;;;10433981;28;45345;-64
2021/10/02 15:19:38;;;;;;;2.30;1.70;;;22.80;48.50;27.20;93488.00;;;;10434456;28;52817;-64
2021/10/02 15:24:56;;;;;;;2.45;1.48;;;22.80;48.50;27.20;93487.00;;;;10431985;28;54027;-64
2021/10/02 15:29:58;;;;;;;2.70;1.77;;;22.80;48.50;27.10;93479.00;;;;10432876;28;52294;-65
2021/10/02 15:35:02;;;;;;;2.53;1.70;;;22.80;48.60;27.10;93466.00;;;;10414523;28;47372;-64
2021/10/02 15:40:05;;;;;;;2.10;1.50;;;22.80;48.60;27.10;93476.00;;;;10415282;28;48486;-65
2021/10/02 15:45:06;;;;;;;2.70;1.75;;;22.80;48.70;27.10;93469.00;;;;10431890;28;48410;-65
2021/10/02 15:50:08;;;;;;;2.88;1.73;;;22.80;48.70;27.10;93481.00;;;;10429343;28;57459;-65
2021/10/02 15:55:13;;;;;;;3.53;1.70;;;22.70;48.70;27.10;93463.00;;;;10432417;28;45480;-64
2021/10/02 16:00:15;;;;;;;4.93;1.70;;;22.80;48.70;27.10;93453.00;;;;10432548;28;55181;-64
2021/10/02 16:05:21;;;;;;;4.75;1.60;;;22.70;48.70;27.10;93456.00;;;;10434407;28;45376;-65
2021/10/02 16:10:26;;;;;;;3.38;1.88;;;22.80;48.70;27.10;93443.00;;;;10432527;28;46685;-63
2021/10/02 16:15:33;;;;;;;3.50;1.60;;;22.70;48.70;27.10;93445.00;;;;10394123;28;46718;-64
2021/10/02 16:20:37;;;;;;;1.92;1.50;;;22.70;49.30;27.10;93432.00;;;;10388052;28;45585;-63
2021/10/02 16:25:39;;;;;;;2.55;1.67;;;22.70;48.60;27.10;93440.00;;;;10373925;28;47522;-63
2021/10/02 16:30:40;;;;;;;2.67;1.67;;;22.70;48.70;27.00;93424.00;;;;10390821;28;45647;-64
2021/10/02 16:35:43;;;;;;;2.38;1.45;;;22.70;48.70;27.00;93424.00;;;;10391409;28;45475;-63
2021/10/02 16:40:43;;;;;;;2.45;1.58;;;22.70;49.30;27.10;93431.00;;;;10373589;28;47032;-63
2021/10/02 16:45:44;;;;;;;2.35;1.58;;;22.70;48.70;27.00;93430.00;;;;10390147;28;45975;-65
2021/10/02 16:50:47;;;;;;;2.50;1.70;;;22.70;48.70;27.00;93424.00;;;;10407268;28;45914;-61
2021/10/02 16:55:52;;;;;;;1.95;1.30;;;22.70;48.90;27.00;93418.00;;;;10439341;28;46316;-64
2021/10/02 17:00:52;;;;;;;4.15;1.67;;;22.70;48.90;27.00;93409.00;;;;10438600;28;47264;-61
2021/10/02 17:05:53;;;;;;;2.08;1.40;;;22.70;49.00;27.00;93401.00;;;;10439028;28;54148;-66
2021/10/02 17:10:54;;;;;;;3.03;1.75;;;22.80;49.10;27.10;93400.00;;;;10439851;28;47738;-63
2021/10/02 17:15:55;;;;;;;1.92;1.48;;;22.80;49.10;27.10;93399.00;;;;10455906;28;74038;-66
2021/10/02 17:20:55;;;;;;;3.17;2.00;;;22.80;49.20;27.10;93387.00;;;;10437000;28;75274;-64
2021/10/02 17:25:57;;;;;;;3.08;1.85;;;22.80;49.40;27.10;93381.00;;;;10437473;28;45324;-64
2021/10/02 17:30:58;;;;;;;3.33;1.85;;;22.80;49.60;27.20;93390.00;;;;10437275;28;45463;-65
2021/10/02 17:35:59;;;;;;;3.90;2.10;;;22.90;49.90;27.20;93385.00;;;;10437832;28;51566;-63
2021/10/02 17:41:02;;;;;;;3.85;1.80;;;22.90;50.10;27.30;93375.00;;;;10437589;28;45578;-65
2021/10/02 17:46:03;;;;;;;4.47;2.10;;;23.00;50.00;27.30;93377.00;;;;10436424;28;46827;-66
2021/10/02 17:51:08;;;;;;;3.42;2.47;;;23.00;50.00;27.40;93380.00;;;;10418614;28;74781;-65
2021/10/02 17:56:11;;;;;;;3.63;2.00;;;23.00;49.90;27.40;93380.00;;;;10418491;28;47135;-64
2021/10/02 18:01:15;;;;;;;3.05;2.05;;;23.10;50.00;27.40;93386.00;;;;10437745;28;46347;-64
2021/10/02 18:06:16;;;;;;;3.28;1.98;;;23.10;50.20;27.40;93386.00;;;;10463676;28;45450;-64
2021/10/02 18:11:17;;;;;;;3.10;1.90;;;23.10;50.00;27.40;93368.00;;;;10472954;28;45436;-66
2021/10/02 18:16:18;;;;;;;2.78;2.08;;;23.10;50.00;27.50;93372.00;;;;10412456;28;75879;-65
2021/10/02 18:21:18;;;;;;;2.88;1.90;;;23.10;49.90;27.50;93375.00;;;;10394522;28;45415;-65
2021/10/02 18:26:30;;;;;;;3.42;2.00;;;23.10;49.80;27.50;93366.00;;;;10393051;28;62813;-65
2021/10/02 18:31:33;;;;;;;2.88;1.92;;;23.10;49.70;27.50;93360.00;;;;10379157;28;47975;-65
2021/10/02 18:36:34;;;;;;;2.53;1.92;;;23.10;49.70;27.50;93357.00;;;;10394909;28;45389;-66
2021/10/02 18:41:34;;;;;;;4.35;2.05;;;23.10;49.70;27.50;93365.00;;;;10393269;28;65629;-65
2021/10/02 18:46:35;;;;;;;2.78;1.92;;;23.10;49.60;27.50;93363.00;;;;10376097;28;75352;-65
2021/10/02 18:51:36;;;;;;;2.80;1.90;;;23.10;49.50;27.50;93358.00;;;;10375627;28;75547;-65
2021/10/02 18:56:37;;;;;;;2.40;1.80;;;23.10;49.50;27.50;93342.00;;;;10406898;22;45823;-60
2021/10/02 19:01:38;;;;;;;2.47;1.70;;;23.10;49.40;27.50;93356.00;;;;10392798;28;72159;-59
2021/10/02 19:06:40;;;;;;;2.85;1.70;;;23.10;49.40;27.50;93339.00;;;;10389497;28;45529;-59
2021/10/02 19:11:41;;;;;;;2.58;1.70;;;23.10;49.30;27.50;93334.00;;;;10408179;28;45654;-60
2021/10/02 19:16:41;;;;;;;2.50;1.70;;;23.10;49.30;27.50;93345.00;;;;10407884;28;45372;-59
2021/10/02 19:21:42;;;;;;;2.60;1.75;;;23.10;49.30;27.50;93336.00;;;;10405556;28;75664;-59
2021/10/02 19:26:44;;;;;;;1.90;1.52;;;23.10;49.30;27.50;93332.00;;;;10388565;28;74813;-59
2021/10/02 19:31:46;;;;;;;2.40;1.80;;;23.10;49.20;27.50;93327.00;;;;10389985;28;45388;-59
2021/10/02 19:36:47;;;;;;;2.70;1.75;;;23.10;49.10;27.50;93334.00;;;;10389101;28;45360;-60
2021/10/02 19:41:48;;;;;;;2.80;1.77;;;23.10;49.10;27.50;93327.00;;;;10390554;28;74471;-60
2021/10/02 19:46:50;;;;;;;3.00;1.75;;;23.10;49.10;27.50;93340.00;;;;10389354;28;68898;-61
2021/10/02 19:51:50;;;;;;;2.63;1.80;;;23.10;49.10;27.50;93325.00;;;;10405558;28;45527;-60
2021/10/02 19:56:51;;;;;;;2.60;1.50;;;23.10;49.10;27.50;93331.00;;;;10386924;28;75100;-60
2021/10/02 20:01:52;;;;;;;2.25;1.70;;;23.10;49.10;27.50;93310.00;;;;10388639;28;70642;-60
2021/10/02 20:06:52;;;;;;;2.08;1.60;;;23.10;49.00;27.50;93316.00;;;;10388481;28;63779;-61
2021/10/02 20:11:53;;;;;;;2.00;1.65;;;23.10;49.00;27.50;93325.00;;;;10389413;28;45367;-60
2021/10/02 20:16:55;;;;;;;1.95;1.40;;;23.10;49.00;27.50;93314.00;;;;10385323;28;75187;-60
2021/10/02 20:21:56;;;;;;;2.50;1.70;;;23.10;49.00;27.50;93309.00;;;;10387151;28;45414;-59
2021/10/02 20:26:57;;;;;;;3.30;1.42;;;23.10;48.90;27.50;93300.00;;;;10388643;28;46217;-60
2021/10/02 20:31:58;;;;;;;2.58;1.52;;;23.10;48.90;27.50;93311.00;;;;10389487;28;46077;-59
2021/10/02 20:36:58;;;;;;;2.28;1.40;;;23.10;48.90;27.50;93315.00;;;;10389205;28;46168;-59
2021/10/02 20:41:59;;;;;;;2.22;1.50;;;23.10;48.90;27.50;93309.00;;;;10404086;28;58417;-61
2021/10/02 20:47:00;;;;;;;2.10;1.60;;;23.10;48.90;27.40;93297.00;;;;10387790;28;74246;-61
2021/10/02 20:52:05;;;;;;;1.67;1.40;;;23.10;48.90;27.40;93290.00;;;;10388062;28;74365;-59
2021/10/02 20:57:07;;;;;;;2.00;1.48;;;23.00;48.80;27.40;93307.00;;;;10403389;28;46265;-60
2021/10/02 21:02:09;;;;;;;1.98;1.30;;;23.00;48.80;27.40;93304.00;;;;10390020;28;45401;-61
2021/10/02 21:07:13;;;;;;;2.25;1.60;;;23.00;48.80;27.40;93300.00;;;;10410904;28;46219;-59
2021/10/02 21:12:13;;;;;;;4.07;1.52;;;23.00;48.80;27.40;93294.00;;;;10370558;28;54453;-61
2021/10/02 21:17:15;;;;;;;2.30;1.65;;;23.00;48.80;27.30;93290.00;;;;10378381;28;73664;-60
2021/10/02 21:22:22;;;;;;;1.98;1.40;;;23.00;48.90;27.30;93286.00;;;;10384939;28;46847;-61
2021/10/02 21:27:23;;;;;;;;;;;23.00;48.90;27.80;93292.00;;;;10388949;28;46169;-62
2021/10/02 21:32:24;;;;;;;1.33;1.20;;;22.90;48.90;27.30;93289.00;;;;10393652;28;45363;-59
2021/10/02 21:37:26;;;;;;;2.58;1.42;;;22.90;48.90;27.30;93286.00;;;;10394006;28;74548;-61
2021/10/02 21:42:26;;;;;;;2.42;1.73;;;22.90;48.90;27.30;93265.00;;;;10395127;28;52584;-60
2021/10/02 21:47:27;;;;;;;1.55;1.33;;;22.90;48.90;27.30;93280.00;;;;10394277;28;62946;-60
2021/10/02 21:52:28;;;;;;;1.67;1.40;;;22.90;48.90;27.20;93270.00;;;;10410870;28;74328;-60
2021/10/02 21:57:31;;;;;;;1.50;1.10;;;22.90;49.00;27.20;93258.00;;;;10394388;28;45250;-60
2021/10/02 22:02:32;;;;;;;1.50;1.17;;;22.80;49.00;27.20;93254.00;;;;10394742;28;47487;-59
2021/10/02 22:07:33;;;;;;;2.35;1.58;;;22.80;48.90;27.20;93260.00;;;;10392939;28;75538;-59
2021/10/02 22:12:34;;;;;;;2.13;1.30;;;22.80;48.90;27.20;93254.00;;;;10393464;28;73998;-60
2021/10/02 22:17:37;;;;;;;1.50;1.15;;;22.80;48.90;27.20;93260.00;;;;10394376;28;75462;-59
2021/10/02 22:22:38;;;;;;;1.95;1.40;;;22.80;48.90;27.20;93243.00;;;;10394184;28;45446;-59
2021/10/02 22:27:41;;;;;;;1.65;1.30;;;22.80;48.90;27.20;93249.00;;;;10392162;28;73590;-59
2021/10/02 22:32:43;;;;;;;2.15;1.70;;;22.80;49.00;27.20;93255.00;;;;10393829;28;50054;-59
2021/10/02 22:37:44;;;;;;;1.65;1.20;;;22.80;49.00;27.20;93243.00;;;;10392879;28;54515;-58
2021/10/02 22:42:45;;;;;;;1.98;1.40;;;22.80;49.00;27.10;93247.00;;;;10394747;28;46252;-60
2021/10/02 22:47:49;;;;;;;1.67;1.27;;;22.70;49.00;27.10;93231.00;;;;10394293;28;45326;-59
2021/10/02 22:52:50;;;;;;;1.92;1.20;;;22.80;49.00;27.10;93238.00;;;;10392857;28;58900;-59
2021/10/02 22:57:53;;;;;;;2.30;1.38;;;22.70;49.00;27.10;93239.00;;;;10392325;28;45483;-60
2021/10/02 23:02:55;;;;;;;1.38;1.05;;;22.70;49.00;27.10;93245.00;;;;10393154;28;45502;-60
2021/10/02 23:07:57;;;;;;;1.75;1.30;;;22.70;49.00;27.10;93244.00;;;;10391552;28;49355;-60